Time;durP1;ratioP1;P1;durP2;ratioP2;P2;SDS_P1;SDS_P2;PMS_P1;PMS_P2;Temp;Humidity;BMP_temperature;BMP_pressure;BME280_temperature;BME280_humidity;BME280_pressure;Samples;Min_cycle;Max_cycle;Signal;HPM_P1;HPM_P2
2022/11/04 00:01:08;;;;;;;2.60;2.40;;;12.70;99.90;;;;;;5075676;28;20431;-70
2022/11/04 00:03:34;;;;;;;4.67;2.80;;;12.90;99.90;;;;;;5057520;28;20168;-69
2022/11/04 00:06:00;;;;;;;3.10;2.27;;;13.10;99.90;;;;;;5075485;28;20178;-69
2022/11/04 00:08:26;;;;;;;2.67;1.90;;;13.00;99.90;;;;;;5075749;28;20172;-70
2022/11/04 00:13:43;;;;;;;3.90;2.23;;;12.80;99.90;;;;;;5076216;28;20222;-69
2022/11/04 00:18:53;;;;;;;2.10;1.70;;;13.10;99.90;;;;;;5075518;28;20185;-69
2022/11/04 00:29:49;;;;;;;5.13;2.87;;;13.10;99.90;;;;;;5075810;28;20386;-69
2022/11/04 00:34:58;;;;;;;2.17;1.40;;;12.80;99.90;;;;;;5055056;28;20186;-70
2022/11/04 00:37:25;;;;;;;1.80;1.40;;;12.70;99.90;;;;;;5055508;28;20404;-70
2022/11/04 00:39:50;;;;;;;1.83;1.40;;;12.60;99.90;;;;;;5055180;28;20175;-68
2022/11/04 00:42:16;;;;;;;1.60;1.50;;;12.50;99.90;;;;;;5054110;28;20778;-69
2022/11/04 00:44:41;;;;;;;3.07;1.70;;;12.70;99.90;;;;;;5055204;28;20186;-69
2022/11/04 00:47:07;;;;;;;2.07;1.27;;;12.90;99.90;;;;;;5055060;28;20176;-70
2022/11/04 00:49:32;;;;;;;2.30;1.70;;;13.00;99.90;;;;;;5065011;28;20249;-70
2022/11/04 00:51:58;;;;;;;1.60;1.30;;;12.90;99.90;;;;;;5060771;28;20330;-69
2022/11/04 00:54:23;;;;;;;4.33;1.80;;;12.70;99.90;;;;;;5054801;28;20220;-70
2022/11/04 00:56:49;;;;;;;2.43;1.70;;;12.60;99.90;;;;;;5054353;28;20183;-70
2022/11/04 00:59:15;;;;;;;1.83;1.60;;;12.70;99.90;;;;;;5054899;28;20177;-70
2022/11/04 01:01:41;;;;;;;1.63;1.50;;;12.60;99.90;;;;;;5054599;28;20189;-69
2022/11/04 01:04:06;;;;;;;1.80;1.20;;;12.60;99.90;;;;;;5067753;28;20174;-70
2022/11/04 01:06:32;;;;;;;1.47;1.10;;;12.70;99.90;;;;;;5074904;28;20430;-70
2022/11/04 01:09:04;;;;;;;1.67;1.10;;;12.60;99.90;;;;;;5074669;28;20199;-69
2022/11/04 01:11:30;;;;;;;1.67;1.50;;;12.60;99.90;;;;;;5074347;28;20186;-69
2022/11/04 01:13:56;;;;;;;2.33;1.53;;;12.40;99.90;;;;;;5074966;28;20412;-70
2022/11/04 01:16:23;;;;;;;2.67;1.67;;;12.50;99.90;;;;;;5074356;28;20212;-69
2022/11/04 01:18:49;;;;;;;1.33;1.10;;;12.50;99.90;;;;;;5074202;28;20404;-69
2022/11/04 01:21:16;;;;;;;1.30;1.20;;;12.40;99.90;;;;;;5074281;28;20517;-70
2022/11/04 01:23:42;;;;;;;1.73;1.30;;;12.40;99.90;;;;;;5074831;28;20250;-69
2022/11/04 01:26:11;;;;;;;1.53;1.10;;;12.50;99.90;;;;;;5074018;28;20397;-69
2022/11/04 01:28:37;;;;;;;1.40;1.20;;;12.50;99.90;;;;;;5074274;28;20748;-70
2022/11/04 01:31:14;;;;;;;2.17;1.97;;;12.60;99.90;;;;;;5074227;28;20450;-68
2022/11/04 01:33:40;;;;;;;2.50;1.60;;;12.70;99.90;;;;;;5073305;28;20536;-70
2022/11/04 01:36:07;;;;;;;2.43;1.97;;;12.70;99.90;;;;;;5074040;28;20497;-70
2022/11/04 01:38:32;;;;;;;2.83;1.57;;;12.70;99.90;;;;;;5073907;28;20411;-69
2022/11/04 01:40:58;;;;;;;1.77;1.37;;;12.80;99.90;;;;;;5074039;28;20423;-68
2022/11/04 01:43:44;;;;;;;1.90;1.40;;;12.80;99.90;;;;;;5073803;28;20252;-69
2022/11/04 01:46:13;;;;;;;1.47;1.37;;;12.70;99.90;;;;;;5073906;28;20507;-69
2022/11/04 01:48:39;;;;;;;1.97;1.23;;;12.60;99.90;;;;;;5073763;28;20500;-70
2022/11/04 01:51:06;;;;;;;1.40;1.30;;;12.70;99.90;;;;;;5074116;28;20523;-70
2022/11/04 01:53:34;;;;;;;1.63;1.37;;;12.80;99.90;;;;;;5073788;28;20599;-69
2022/11/04 01:56:10;;;;;;;1.10;1.00;;;12.80;99.90;;;;;;5073583;28;20459;-70
2022/11/04 01:58:39;;;;;;;1.60;1.20;;;12.80;99.90;;;;;;5073960;28;20424;-69
2022/11/04 02:01:05;;;;;;;2.13;1.23;;;12.80;99.90;;;;;;5073101;28;20458;-70
2022/11/04 02:03:43;;;;;;;1.70;1.30;;;12.70;99.90;;;;;;5073273;28;20426;-68
2022/11/04 02:06:10;;;;;;;1.50;1.20;;;12.60;99.90;;;;;;5073644;28;20396;-69
2022/11/04 02:08:36;;;;;;;1.47;1.17;;;12.70;99.90;;;;;;5054589;28;20427;-70
2022/11/04 02:11:03;;;;;;;2.90;1.60;;;12.70;99.90;;;;;;5073397;28;20436;-68
2022/11/04 02:13:34;;;;;;;1.83;1.53;;;12.70;99.90;;;;;;5073328;28;20417;-70
2022/11/04 02:16:07;;;;;;;1.47;1.37;;;12.70;99.90;;;;;;5073391;28;20453;-70
2022/11/04 02:19:10;;;;;;;1.33;1.23;;;12.80;99.90;;;;;;5073718;28;20947;-70
2022/11/04 02:22:02;;;;;;;1.83;1.50;;;12.80;99.90;;;;;;5073320;28;20454;-69
2022/11/04 02:24:58;;;;;;;1.70;1.40;;;12.80;99.90;;;;;;5070829;28;20474;-69
2022/11/04 02:27:32;;;;;;;1.23;1.00;;;12.60;99.90;;;;;;5073429;28;20389;-70
2022/11/04 02:30:06;;;;;;;1.50;1.40;;;12.60;99.90;;;;;;5073339;28;20401;-69
2022/11/04 02:32:59;;;;;;;3.90;1.40;;;12.50;99.90;;;;;;5073545;28;20396;-70
2022/11/04 02:35:48;;;;;;;2.70;1.17;;;12.50;99.90;;;;;;5052883;28;20947;-69
2022/11/04 02:38:16;;;;;;;1.20;1.00;;;12.40;99.90;;;;;;5053464;28;20432;-69
2022/11/04 02:41:04;;;;;;;4.77;1.20;;;12.50;99.90;;;;;;5053223;28;20820;-70
2022/11/04 02:43:45;;;;;;;2.30;1.17;;;12.30;99.90;;;;;;5053093;28;20759;-70
2022/11/04 02:46:31;;;;;;;1.30;1.10;;;12.30;99.90;;;;;;5053022;28;20417;-69
2022/11/04 02:49:09;;;;;;;1.73;0.87;;;12.30;99.90;;;;;;5052626;28;20451;-70
2022/11/04 02:51:57;;;;;;;1.53;1.30;;;12.40;99.90;;;;;;5052997;28;20464;-69
2022/11/04 02:54:29;;;;;;;1.60;1.00;;;12.50;99.90;;;;;;5053247;28;20441;-69
2022/11/04 02:56:57;;;;;;;2.40;1.00;;;12.50;99.90;;;;;;5053409;28;20386;-69
2022/11/04 02:59:34;;;;;;;1.17;0.80;;;12.40;99.90;;;;;;5052948;28;20416;-69
2022/11/04 03:02:04;;;;;;;1.67;1.27;;;12.50;99.90;;;;;;5052866;28;20416;-70
2022/11/04 03:04:39;;;;;;;1.23;1.00;;;12.50;99.90;;;;;;5066024;28;20512;-70
2022/11/04 03:07:08;;;;;;;1.70;0.93;;;12.50;99.90;;;;;;5073311;28;20388;-69
2022/11/04 03:09:38;;;;;;;1.20;0.97;;;12.40;99.90;;;;;;5072841;28;20468;-69
2022/11/04 03:12:09;;;;;;;1.50;1.17;;;12.50;99.90;;;;;;5074264;28;20467;-69
2022/11/04 03:14:47;;;;;;;1.60;1.23;;;12.40;99.90;;;;;;5077296;28;20439;-68
2022/11/04 03:17:28;;;;;;;1.33;0.83;;;12.40;99.90;;;;;;5077140;28;20475;-70
2022/11/04 03:19:58;;;;;;;1.00;0.90;;;12.30;99.90;;;;;;5076433;28;20492;-70
2022/11/04 03:22:35;;;;;;;1.67;0.97;;;12.20;99.90;;;;;;5076681;28;20449;-69
2022/11/04 03:25:04;;;;;;;1.87;1.23;;;12.10;99.90;;;;;;5077157;28;20392;-69
2022/11/04 03:27:49;;;;;;;1.23;1.00;;;12.10;99.90;;;;;;5076605;28;20414;-69
2022/11/04 03:30:17;;;;;;;1.47;0.73;;;12.10;99.90;;;;;;5076931;28;20388;-70
2022/11/04 03:32:49;;;;;;;1.50;0.70;;;12.00;99.90;;;;;;5076322;28;20412;-70
2022/11/04 03:35:16;;;;;;;1.00;0.80;;;11.90;99.90;;;;;;5075362;28;21038;-70
2022/11/04 03:37:43;;;;;;;0.80;0.70;;;11.90;99.90;;;;;;5076731;28;20409;-70
2022/11/04 03:40:10;;;;;;;2.07;0.93;;;11.80;99.90;;;;;;5076504;28;20410;-70
2022/11/04 03:42:42;;;;;;;3.20;1.00;;;11.80;99.90;;;;;;5075499;28;20883;-70
2022/11/04 03:45:10;;;;;;;2.43;0.90;;;11.70;99.90;;;;;;5059420;28;20506;-69
2022/11/04 03:47:36;;;;;;;1.20;0.80;;;11.60;99.90;;;;;;5056181;28;20478;-70
2022/11/04 03:50:08;;;;;;;1.70;1.00;;;11.60;99.90;;;;;;5055597;28;20496;-70
2022/11/04 03:52:35;;;;;;;1.17;0.87;;;11.50;99.90;;;;;;5056676;28;20436;-70
2022/11/04 03:55:01;;;;;;;2.77;1.30;;;11.40;99.90;;;;;;5056035;28;20456;-69
2022/11/04 03:57:40;;;;;;;1.37;0.80;;;11.40;99.90;;;;;;5056527;28;20409;-69
2022/11/04 04:00:11;;;;;;;1.20;1.00;;;11.40;99.90;;;;;;5056155;28;20381;-70
2022/11/04 04:03:11;;;;;;;2.30;1.00;;;11.40;99.90;;;;;;5055975;28;20406;-70
2022/11/04 04:05:55;;;;;;;1.00;0.70;;;11.40;99.90;;;;;;5055633;28;20397;-70
2022/11/04 04:08:56;;;;;;;1.47;1.30;;;11.50;99.90;;;;;;5055922;28;20424;-69
2022/11/04 04:11:39;;;;;;;2.00;0.90;;;11.40;99.90;;;;;;5056063;28;20478;-70
2022/11/04 04:14:38;;;;;;;1.13;0.90;;;11.30;99.90;;;;;;5056217;28;20434;-69
2022/11/04 04:17:28;;;;;;;2.20;1.20;;;11.40;99.90;;;;;;5055473;28;20410;-69
2022/11/04 04:20:02;;;;;;;1.40;1.20;;;11.40;99.90;;;;;;5055322;28;20413;-69
2022/11/04 04:22:32;;;;;;;1.90;1.40;;;11.40;99.90;;;;;;5055400;28;20431;-70
2022/11/04 04:27:48;;;;;;;1.30;1.00;;;11.30;99.90;;;;;;5056010;28;20413;-69
2022/11/04 04:30:15;;;;;;;2.47;1.10;;;11.40;99.90;;;;;;5055311;28;20431;-70
2022/11/04 04:32:43;;;;;;;1.97;1.10;;;11.40;99.90;;;;;;5069699;28;20795;-69
2022/11/04 04:44:58;;;;;;;1.37;0.90;;;11.20;99.90;;;;;;5075854;28;20392;-69
2022/11/04 04:46:16;;;;;;;1.50;1.40;;;11.20;99.90;;;;;;5075017;28;20454;-69
2022/11/04 04:48:41;;;;;;;1.20;0.80;;;11.20;99.90;;;;;;5074609;28;20883;-70
2022/11/04 04:51:07;;;;;;;1.40;1.30;;;11.10;99.90;;;;;;5075009;28;20188;-70
2022/11/04 04:53:32;;;;;;;1.53;0.90;;;10.90;99.90;;;;;;5075265;28;20170;-69
2022/11/04 04:55:58;;;;;;;1.50;1.13;;;11.00;99.90;;;;;;5075065;28;20226;-70
2022/11/04 04:58:23;;;;;;;1.50;0.90;;;11.10;99.90;;;;;;5057213;28;20162;-69
2022/11/04 05:00:49;;;;;;;2.43;1.10;;;11.10;99.90;;;;;;5056810;28;20189;-70
2022/11/04 05:03:14;;;;;;;1.20;0.93;;;11.00;99.90;;;;;;5074631;28;20169;-70
2022/11/04 05:05:40;;;;;;;2.87;2.10;;;10.90;99.90;;;;;;5074863;28;20256;-70
2022/11/04 05:08:07;;;;;;;3.17;2.07;;;10.80;99.90;;;;;;5074733;28;20544;-70
2022/11/04 05:10:33;;;;;;;2.57;2.37;;;10.90;99.90;;;;;;5074510;28;20607;-70
2022/11/04 05:15:55;;;;;;;4.40;1.97;;;10.90;99.90;;;;;;5061185;28;20575;-70
2022/11/04 05:18:20;;;;;;;3.77;1.87;;;10.90;99.90;;;;;;5074225;28;20890;-71
2022/11/04 05:20:46;;;;;;;4.07;1.70;;;11.00;99.90;;;;;;5099855;22;20456;-76
2022/11/04 05:23:12;;;;;;;1.87;1.70;;;11.10;99.90;;;;;;5085271;28;20174;-76
2022/11/04 05:25:38;;;;;;;3.10;2.80;;;11.10;99.90;;;;;;5074408;28;20260;-76
2022/11/04 05:28:05;;;;;;;4.03;2.90;;;11.00;99.90;;;;;;5056298;28;20409;-75
2022/11/04 05:30:31;;;;;;;2.23;2.00;;;11.00;99.90;;;;;;5074069;28;20423;-75
2022/11/04 05:32:57;;;;;;;1.77;1.40;;;10.90;99.90;;;;;;5073632;28;20428;-75
2022/11/04 05:35:22;;;;;;;1.37;1.20;;;10.90;99.90;;;;;;5093454;28;20462;-76
2022/11/04 05:37:48;;;;;;;2.77;2.53;;;10.80;99.90;;;;;;5114843;28;20691;-76
2022/11/04 05:40:14;;;;;;;5.23;3.20;;;10.80;99.90;;;;;;5114940;28;20161;-76
2022/11/04 05:42:39;;;;;;;4.03;2.60;;;10.80;99.90;;;;;;5115057;28;20184;-76
2022/11/04 05:45:05;;;;;;;6.60;2.87;;;10.70;99.90;;;;;;5114529;28;20165;-76
2022/11/04 05:47:31;;;;;;;3.20;2.10;;;10.70;99.90;;;;;;5114208;28;20169;-76
2022/11/04 05:49:56;;;;;;;3.63;1.97;;;10.70;99.90;;;;;;5113945;28;20931;-75
2022/11/04 05:52:22;;;;;;;3.23;1.63;;;10.70;99.90;;;;;;5114205;28;20186;-76
2022/11/04 05:54:47;;;;;;;2.80;1.43;;;10.70;99.90;;;;;;5114166;28;20272;-76
2022/11/04 05:57:13;;;;;;;2.47;1.50;;;10.70;99.90;;;;;;5114185;28;20191;-76
2022/11/04 05:59:39;;;;;;;1.80;1.23;;;10.70;99.90;;;;;;5114231;28;20162;-76
2022/11/04 06:02:04;;;;;;;1.67;1.20;;;10.80;99.90;;;;;;5114026;28;20631;-76
2022/11/04 06:04:30;;;;;;;1.43;1.30;;;10.80;99.90;;;;;;5113852;28;20264;-76
2022/11/04 06:06:56;;;;;;;6.40;5.77;;;10.70;99.90;;;;;;5096015;28;20191;-76
2022/11/04 06:09:37;;;;;;;2.10;1.90;;;10.70;99.90;;;;;;5114319;28;20167;-76
2022/11/04 06:12:13;;;;;;;2.43;1.60;;;10.70;99.90;;;;;;5113960;28;20198;-75
2022/11/04 06:14:40;;;;;;;2.73;2.10;;;10.70;99.90;;;;;;5113980;28;20433;-76
2022/11/04 06:17:06;;;;;;;3.50;2.83;;;10.80;99.90;;;;;;5114743;28;20916;-76
2022/11/04 06:19:31;;;;;;;2.67;1.93;;;10.80;99.90;;;;;;5113952;28;20483;-77
2022/11/04 06:21:59;;;;;;;3.53;2.90;;;10.90;99.90;;;;;;5113646;28;20574;-76
2022/11/04 06:24:24;;;;;;;3.27;2.97;;;10.90;99.90;;;;;;5113774;28;20475;-76
2022/11/04 06:26:50;;;;;;;2.37;2.17;;;10.80;99.90;;;;;;5113752;28;20395;-75
2022/11/04 06:29:15;;;;;;;2.13;1.93;;;10.80;99.90;;;;;;5113726;28;20201;-76
2022/11/04 06:31:41;;;;;;;2.87;1.40;;;10.80;99.90;;;;;;5114033;28;20262;-75
2022/11/04 06:34:06;;;;;;;2.70;1.70;;;10.80;99.90;;;;;;5111880;28;20178;-76
2022/11/04 06:36:32;;;;;;;2.80;1.80;;;10.80;99.90;;;;;;5113961;28;20521;-76
2022/11/04 06:38:57;;;;;;;3.00;1.40;;;10.80;99.90;;;;;;5103664;28;20162;-75
2022/11/04 06:41:23;;;;;;;2.53;1.93;;;10.80;99.90;;;;;;5093242;28;20178;-75
2022/11/04 06:43:49;;;;;;;4.00;2.20;;;10.90;99.90;;;;;;5093784;28;20157;-75
2022/11/04 06:46:36;;;;;;;2.47;1.87;;;10.90;99.90;;;;;;5092973;28;20946;-76
2022/11/04 06:49:03;;;;;;;2.10;1.70;;;10.90;99.90;;;;;;5093010;28;20565;-76
2022/11/04 06:51:29;;;;;;;1.83;1.40;;;10.80;99.90;;;;;;5093035;28;20435;-76
2022/11/04 06:53:55;;;;;;;1.63;1.17;;;10.70;99.90;;;;;;5093635;28;20899;-76
2022/11/04 06:56:21;;;;;;;2.70;1.70;;;10.70;99.90;;;;;;5093451;28;20581;-76
2022/11/04 06:58:48;;;;;;;2.00;1.50;;;10.70;99.90;;;;;;5074986;28;20310;-76
2022/11/04 07:01:15;;;;;;;1.77;1.50;;;10.80;99.90;;;;;;5092969;28;20175;-76
2022/11/04 07:03:40;;;;;;;2.20;1.60;;;10.90;99.90;;;;;;5079492;28;20410;-76
2022/11/04 07:06:07;;;;;;;3.00;1.27;;;10.90;99.90;;;;;;5113325;28;20430;-76
2022/11/04 07:08:33;;;;;;;2.70;1.57;;;10.90;99.90;;;;;;5113123;28;20667;-76
2022/11/04 07:10:59;;;;;;;1.63;1.13;;;10.80;99.90;;;;;;5113656;28;20510;-76
2022/11/04 07:13:25;;;;;;;2.50;1.47;;;10.80;99.90;;;;;;5094949;28;20919;-75
2022/11/04 07:15:50;;;;;;;2.50;1.83;;;10.80;99.90;;;;;;5113413;28;20449;-76
2022/11/04 07:18:16;;;;;;;1.83;1.13;;;10.90;99.90;;;;;;5113203;28;20165;-76
2022/11/04 07:20:42;;;;;;;3.37;1.47;;;11.10;99.90;;;;;;5113132;28;20192;-76
2022/11/04 07:23:07;;;;;;;2.67;1.30;;;11.20;99.90;;;;;;5114484;28;20159;-76
2022/11/04 07:25:33;;;;;;;4.70;1.70;;;11.20;99.90;;;;;;5113767;28;20170;-76
2022/11/04 07:27:59;;;;;;;2.80;1.73;;;11.30;99.90;;;;;;5114166;28;20631;-76
2022/11/04 07:30:26;;;;;;;1.40;1.20;;;11.30;99.90;;;;;;5113378;28;20252;-76
2022/11/04 07:32:51;;;;;;;2.60;1.20;;;11.40;99.90;;;;;;5113446;28;20419;-76
2022/11/04 07:35:17;;;;;;;2.80;1.80;;;11.50;99.90;;;;;;5112322;28;20451;-76
2022/11/04 07:37:43;;;;;;;3.07;2.30;;;11.50;99.90;;;;;;5114745;28;20172;-76
2022/11/04 07:40:09;;;;;;;3.53;1.30;;;11.60;99.90;;;;;;5116700;28;20168;-77
2022/11/04 07:42:34;;;;;;;1.77;1.60;;;11.70;99.90;;;;;;5116660;28;20181;-76
2022/11/04 07:45:01;;;;;;;2.43;2.10;;;11.70;99.90;;;;;;5114742;28;20991;-76
2022/11/04 07:47:29;;;;;;;3.87;2.53;;;11.80;99.90;;;;;;5114628;28;20172;-76
2022/11/04 07:49:55;;;;;;;2.43;1.97;;;11.80;99.90;;;;;;5118931;28;20413;-76
2022/11/04 07:52:21;;;;;;;3.40;1.87;;;11.80;99.90;;;;;;5114336;28;20504;-75
2022/11/04 07:54:46;;;;;;;2.20;1.70;;;11.70;99.90;;;;;;5113591;28;20196;-75
2022/11/04 07:57:12;;;;;;;2.60;1.70;;;11.70;99.90;;;;;;5095547;28;20461;-75
2022/11/04 07:59:37;;;;;;;1.90;1.40;;;11.60;99.90;;;;;;5116977;28;20167;-75
2022/11/04 08:02:04;;;;;;;11.40;8.67;;;11.80;99.90;;;;;;5098722;28;20265;-75
2022/11/04 08:04:29;;;;;;;2.27;1.60;;;11.90;99.90;;;;;;5097806;28;20702;-75
2022/11/04 08:06:55;;;;;;;3.80;1.40;;;11.90;99.90;;;;;;5116657;28;20494;-76
2022/11/04 08:09:20;;;;;;;4.53;2.10;;;12.00;99.90;;;;;;5118820;28;20545;-76
2022/11/04 08:11:46;;;;;;;3.60;1.43;;;12.10;99.90;;;;;;5119722;28;20222;-76
2022/11/04 08:14:11;;;;;;;2.90;1.40;;;12.10;99.90;;;;;;5106870;28;20218;-75
2022/11/04 08:16:37;;;;;;;2.50;1.87;;;12.10;99.90;;;;;;5087768;28;20170;-75
2022/11/04 08:19:02;;;;;;;3.70;1.20;;;12.40;99.90;;;;;;5077960;28;20170;-76
2022/11/04 08:21:30;;;;;;;1.77;1.67;;;12.60;99.90;;;;;;5077960;28;20268;-76
2022/11/04 08:23:55;;;;;;;2.40;2.20;;;12.60;99.90;;;;;;5077646;28;20198;-76
2022/11/04 08:26:25;;;;;;;3.70;3.40;;;12.60;99.90;;;;;;5077880;28;20408;-75
2022/11/04 08:28:51;;;;;;;3.60;2.10;;;12.70;99.90;;;;;;5078047;28;20225;-76
2022/11/04 08:31:27;;;;;;;2.77;1.23;;;12.80;99.90;;;;;;5073298;28;20516;-75
2022/11/04 08:33:54;;;;;;;4.00;1.70;;;12.90;99.90;;;;;;5100413;28;20424;-75
2022/11/04 08:36:29;;;;;;;1.67;1.30;;;12.90;99.90;;;;;;5116349;28;20458;-75
2022/11/04 08:38:55;;;;;;;3.70;1.47;;;13.10;99.90;;;;;;5115800;28;20392;-76
2022/11/04 08:41:24;;;;;;;1.90;1.27;;;13.10;99.90;;;;;;5097360;28;20499;-76
2022/11/04 08:43:49;;;;;;;2.20;1.70;;;13.10;99.90;;;;;;5115650;28;20772;-76
2022/11/04 08:46:16;;;;;;;2.93;2.73;;;13.20;99.90;;;;;;5116099;28;20400;-77
2022/11/04 08:48:42;;;;;;;2.83;1.30;;;13.30;99.90;;;;;;5115738;28;20600;-76
2022/11/04 08:51:16;;;;;;;1.73;1.20;;;13.50;99.90;;;;;;5115303;28;20431;-76
2022/11/04 08:53:42;;;;;;;2.00;1.03;;;13.60;99.90;;;;;;5115500;28;20392;-76
2022/11/04 08:56:23;;;;;;;3.50;1.20;;;13.60;99.90;;;;;;5115529;28;20452;-76
2022/11/04 08:58:49;;;;;;;2.10;1.40;;;13.70;99.90;;;;;;5115465;28;20746;-76
2022/11/04 09:01:17;;;;;;;3.17;1.10;;;13.50;99.90;;;;;;5115668;28;20495;-76
2022/11/04 09:03:43;;;;;;;1.63;0.97;;;13.50;99.90;;;;;;5115307;28;20649;-77
2022/11/04 09:06:12;;;;;;;2.80;1.13;;;13.50;99.90;;;;;;5096896;28;20509;-76
2022/11/04 09:08:38;;;;;;;2.70;1.20;;;13.40;99.90;;;;;;5114812;28;20197;-76
2022/11/04 09:11:10;;;;;;;3.07;1.17;;;13.30;99.90;;;;;;5114433;28;20424;-76
2022/11/04 09:13:37;;;;;;;3.70;0.93;;;13.40;99.90;;;;;;5115381;28;20408;-76
2022/11/04 09:16:03;;;;;;;1.30;1.10;;;13.50;99.90;;;;;;5115614;28;20966;-76
2022/11/04 09:18:29;;;;;;;1.37;1.27;;;13.50;99.90;;;;;;5115485;28;20452;-76
2022/11/04 09:20:59;;;;;;;2.33;1.27;;;13.40;99.90;;;;;;5114427;28;20480;-76
2022/11/04 09:23:24;;;;;;;1.73;1.40;;;13.20;99.90;;;;;;5115136;28;20406;-76
2022/11/04 09:25:50;;;;;;;2.93;1.10;;;13.10;99.90;;;;;;5114775;28;20923;-76
2022/11/04 09:28:16;;;;;;;4.70;1.33;;;13.10;99.90;;;;;;5114622;28;20251;-76
2022/11/04 09:30:41;;;;;;;3.10;1.33;;;13.10;99.90;;;;;;5114826;28;20214;-76
2022/11/04 09:33:07;;;;;;;2.23;1.00;;;13.00;99.90;;;;;;5113748;28;20663;-76
2022/11/04 09:35:32;;;;;;;2.43;1.00;;;12.90;99.90;;;;;;5113635;28;20282;-76
2022/11/04 09:38:00;;;;;;;2.03;1.20;;;12.90;99.90;;;;;;5114582;28;20177;-76
2022/11/04 09:40:26;;;;;;;2.17;1.13;;;13.10;99.90;;;;;;5114649;28;20250;-76
2022/11/04 09:43:23;;;;;;;3.67;1.07;;;13.20;99.90;;;;;;5096073;28;20433;-76
2022/11/04 09:45:49;;;;;;;2.13;1.10;;;13.30;99.90;;;;;;5100747;28;20419;-76
2022/11/04 09:48:26;;;;;;;4.30;1.17;;;13.30;99.90;;;;;;5114373;28;20432;-76
2022/11/04 09:50:57;;;;;;;5.60;1.33;;;13.30;99.90;;;;;;5114197;28;20163;-76
2022/11/04 09:53:36;;;;;;;1.97;1.27;;;13.40;99.90;;;;;;5114554;28;20389;-76
2022/11/04 09:56:22;;;;;;;2.60;0.90;;;13.40;99.90;;;;;;5095910;28;20453;-76
2022/11/04 09:58:50;;;;;;;2.00;1.20;;;13.60;99.90;;;;;;5096186;28;20402;-76
2022/11/04 10:01:51;;;;;;;2.20;1.00;;;13.70;99.90;;;;;;5114379;28;20903;-76
2022/11/04 10:04:44;;;;;;;1.50;1.00;;;14.20;99.90;;;;;;5095323;28;20485;-76
2022/11/04 10:07:32;;;;;;;2.50;1.20;;;14.40;99.90;;;;;;5096070;28;20394;-76
2022/11/04 10:10:39;;;;;;;2.40;1.10;;;14.10;99.90;;;;;;5096069;28;20452;-76
2022/11/04 10:13:20;;;;;;;1.17;0.80;;;14.00;99.90;;;;;;4995673;28;20429;-76
2022/11/04 10:15:45;;;;;;;1.70;1.00;;;14.00;99.90;;;;;;5085697;28;20462;-76
2022/11/04 10:18:44;;;;;;;1.40;0.90;;;13.90;99.90;;;;;;5114706;28;20876;-75
2022/11/04 10:21:38;;;;;;;2.03;1.30;;;13.70;99.90;;;;;;5095239;28;20522;-77
2022/11/04 10:24:30;;;;;;;5.17;1.13;;;13.90;99.90;;;;;;5114425;28;20848;-76
2022/11/04 10:27:08;;;;;;;2.60;1.30;;;14.20;99.90;;;;;;5114277;28;20387;-76
2022/11/04 10:29:42;;;;;;;1.50;1.03;;;14.50;99.90;;;;;;5081622;28;20396;-76
2022/11/04 10:32:20;;;;;;;2.80;1.33;;;14.40;99.90;;;;;;5093389;28;20454;-76
2022/11/04 10:35:14;;;;;;;1.87;1.20;;;14.50;99.90;;;;;;5105402;28;20545;-76
2022/11/04 10:37:40;;;;;;;2.00;1.20;;;14.40;99.90;;;;;;5067955;28;20469;-76
2022/11/04 10:40:19;;;;;;;3.63;1.00;;;14.60;99.90;;;;;;5113506;28;20907;-76
2022/11/04 10:42:45;;;;;;;4.00;1.67;;;14.80;99.90;;;;;;5113523;28;20318;-76
2022/11/04 10:45:12;;;;;;;3.80;1.13;;;14.90;99.90;;;;;;5113389;28;20437;-77
2022/11/04 10:47:58;;;;;;;6.40;1.57;;;15.00;99.90;;;;;;5113314;28;20163;-76
2022/11/04 10:50:30;;;;;;;1.87;1.07;;;15.60;99.90;;;;;;5112992;28;20386;-77
2022/11/04 10:53:17;;;;;;;2.43;1.30;;;16.20;99.90;;;;;;5113715;28;20412;-77
2022/11/04 10:56:01;;;;;;;1.60;1.00;;;16.10;99.90;;;;;;5094987;28;20449;-76
2022/11/04 10:58:31;;;;;;;2.53;1.23;;;16.00;99.90;;;;;;5113511;28;20402;-76
2022/11/04 11:00:58;;;;;;;2.43;1.33;;;15.80;99.90;;;;;;5113295;28;21015;-76
2022/11/04 11:03:32;;;;;;;1.50;0.97;;;16.10;99.90;;;;;;5113886;28;20450;-76
2022/11/04 11:06:12;;;;;;;3.87;1.63;;;16.20;99.90;;;;;;5113683;28;20392;-78
2022/11/04 11:08:38;;;;;;;5.10;1.10;;;15.60;99.90;;;;;;5063494;28;20418;-77
2022/11/04 11:11:07;;;;;;;4.43;1.30;;;15.70;99.90;;;;;;5093408;28;20793;-77
2022/11/04 11:13:36;;;;;;;2.30;1.20;;;15.30;99.90;;;;;;5092796;28;20161;-78
2022/11/04 11:16:06;;;;;;;3.70;1.37;;;15.00;99.90;;;;;;5075240;28;20457;-76
2022/11/04 11:18:32;;;;;;;3.03;1.03;;;15.00;99.90;;;;;;5093225;28;20406;-76
2022/11/04 11:21:20;;;;;;;3.93;1.40;;;14.90;99.90;;;;;;5092944;28;20435;-76
2022/11/04 11:23:50;;;;;;;3.97;1.80;;;14.90;99.90;;;;;;5093304;28;20153;-76
2022/11/04 11:26:18;;;;;;;1.63;1.20;;;14.80;99.90;;;;;;5093089;28;20407;-76
2022/11/04 11:28:59;;;;;;;5.43;1.60;;;14.60;99.90;;;;;;5093037;28;20438;-76
2022/11/04 11:31:25;;;;;;;1.53;1.00;;;14.70;99.90;;;;;;5092573;28;20415;-76
2022/11/04 11:34:01;;;;;;;5.03;2.20;;;14.90;99.90;;;;;;5099236;28;20425;-77
2022/11/04 11:36:30;;;;;;;2.90;1.30;;;15.00;99.90;;;;;;5098671;28;20459;-77
2022/11/04 11:39:14;;;;;;;2.83;1.30;;;14.90;99.90;;;;;;5117461;28;20399;-76
2022/11/04 11:42:05;;;;;;;2.07;1.03;;;14.80;99.90;;;;;;5117446;28;20475;-77
2022/11/04 11:44:51;;;;;;;7.40;1.37;;;14.90;99.90;;;;;;5117659;28;20430;-77
2022/11/04 11:47:21;;;;;;;2.13;1.30;;;14.70;99.90;;;;;;5117514;28;20857;-76
2022/11/04 11:50:06;;;;;;;2.93;1.60;;;14.60;99.90;;;;;;5098301;28;20749;-76
2022/11/04 11:52:33;;;;;;;2.87;1.87;;;14.60;99.90;;;;;;5116764;28;20415;-75
2022/11/04 11:55:17;;;;;;;3.50;1.40;;;14.90;99.90;;;;;;5116452;28;20487;-75
2022/11/04 11:58:09;;;;;;;5.33;1.80;;;14.90;99.90;;;;;;5096700;28;20414;-75
2022/11/04 12:00:43;;;;;;;2.33;1.20;;;14.80;99.90;;;;;;5116791;28;20390;-76
2022/11/04 12:03:29;;;;;;;3.63;1.17;;;15.00;99.90;;;;;;5116813;28;20385;-76
2022/11/04 12:06:14;;;;;;;3.07;1.17;;;15.40;99.90;;;;;;5116225;28;20392;-75
2022/11/04 12:08:57;;;;;;;4.63;1.90;;;15.60;99.90;;;;;;5116783;28;20410;-77
2022/11/04 12:11:53;;;;;;;4.10;1.37;;;15.80;99.90;;;;;;5116940;28;21006;-77
2022/11/04 12:14:30;;;;;;;5.27;1.60;;;16.20;99.90;;;;;;5116413;28;20387;-76
2022/11/04 12:17:20;;;;;;;3.23;1.27;;;16.50;99.90;;;;;;5117003;28;20413;-77
2022/11/04 12:20:04;;;;;;;2.20;1.37;;;16.50;99.90;;;;;;5116857;28;20391;-76
2022/11/04 12:22:44;;;;;;;4.93;0.97;;;16.30;99.90;;;;;;5118147;28;20442;-77
2022/11/04 12:25:33;;;;;;;3.97;1.33;;;16.20;99.90;;;;;;5116347;28;20459;-75
2022/11/04 12:28:23;;;;;;;4.03;1.20;;;15.10;99.90;;;;;;5083528;28;20500;-76
2022/11/04 12:31:14;;;;;;;2.30;1.17;;;15.10;99.90;;;;;;5096113;28;20468;-77
2022/11/04 12:33:52;;;;;;;2.90;1.00;;;15.00;99.90;;;;;;5098747;28;20775;-76
2022/11/04 12:36:39;;;;;;;3.20;1.40;;;15.00;99.90;;;;;;5116578;28;20436;-76
2022/11/04 12:39:38;;;;;;;7.70;1.77;;;15.10;99.90;;;;;;5116560;28;20385;-77
2022/11/04 12:42:20;;;;;;;2.33;1.00;;;14.80;99.90;;;;;;5115868;28;20408;-76
2022/11/04 12:44:51;;;;;;;1.90;1.10;;;14.70;99.90;;;;;;5097193;28;20396;-77
2022/11/04 12:47:33;;;;;;;4.20;1.33;;;14.90;99.90;;;;;;5116180;28;20481;-75
2022/11/04 12:50:19;;;;;;;4.23;1.10;;;15.10;99.90;;;;;;5097110;28;20395;-77
2022/11/04 12:52:52;;;;;;;4.10;1.40;;;15.50;99.90;;;;;;5115909;28;20424;-77
2022/11/04 12:55:36;;;;;;;3.17;1.50;;;15.70;99.90;;;;;;5111285;28;20455;-75
2022/11/04 12:58:34;;;;;;;3.63;1.37;;;15.90;99.90;;;;;;5083957;28;20491;-76
2022/11/04 13:01:16;;;;;;;3.07;1.37;;;16.10;99.90;;;;;;5075196;28;20833;-75
2022/11/04 13:03:52;;;;;;;2.23;1.27;;;16.10;99.90;;;;;;5081884;28;20825;-77
2022/11/04 13:06:27;;;;;;;4.83;1.50;;;15.90;99.90;;;;;;5115192;28;20394;-76
2022/11/04 13:08:59;;;;;;;3.20;1.47;;;15.70;99.90;;;;;;5115402;28;20409;-76
2022/11/04 13:11:34;;;;;;;5.23;1.50;;;15.80;99.90;;;;;;5115284;28;20437;-76
2022/11/04 13:14:28;;;;;;;7.60;1.47;;;15.80;99.90;;;;;;5115550;28;20390;-76
2022/11/04 13:17:02;;;;;;;3.93;1.60;;;15.70;99.90;;;;;;5115404;28;20386;-76
2022/11/04 13:19:41;;;;;;;3.50;1.20;;;15.70;99.90;;;;;;5114473;28;20443;-76
2022/11/04 13:22:14;;;;;;;3.47;1.40;;;15.80;99.90;;;;;;5114679;28;20441;-76
2022/11/04 13:24:47;;;;;;;5.10;1.70;;;16.00;99.90;;;;;;5114860;28;20482;-75
2022/11/04 13:27:36;;;;;;;3.30;2.13;;;16.20;99.90;;;;;;5114805;28;20401;-75
2022/11/04 13:30:24;;;;;;;5.00;1.50;;;16.00;99.90;;;;;;5114773;28;20447;-75
2022/11/04 13:33:20;;;;;;;2.20;1.40;;;16.20;99.90;;;;;;5096425;28;20458;-75
2022/11/04 13:36:11;;;;;;;2.90;2.07;;;15.90;99.90;;;;;;5113125;28;20791;-75
2022/11/04 13:38:49;;;;;;;3.40;1.40;;;16.00;99.90;;;;;;5114810;28;20386;-76
2022/11/04 13:41:39;;;;;;;2.50;1.40;;;16.00;99.90;;;;;;5114797;28;20444;-74
2022/11/04 13:44:25;;;;;;;4.80;2.37;;;15.90;99.90;;;;;;5114474;28;20432;-75
2022/11/04 13:46:55;;;;;;;3.10;1.63;;;15.70;99.90;;;;;;5114730;28;20888;-75